Time;durP1;ratioP1;P1;durP2;ratioP2;P2;SDS_P1;SDS_P2;PMS_P1;PMS_P2;Temp;Humidity;BMP_temperature;BMP_pressure;BME280_temperature;BME280_humidity;BME280_pressure;Samples;Min_cycle;Max_cycle;Signal;HPM_P1;HPM_P2
2022/07/13 00:01:30;;;;;;;3.80;2.17;;;23.80;97.10;;;;;;5054362;28;20306;-60
2022/07/13 00:03:56;;;;;;;4.82;1.98;;;23.80;96.50;;;;;;5054321;28;20021;-60
2022/07/13 00:06:22;;;;;;;2.92;2.22;;;23.80;96.10;;;;;;5053887;28;20104;-60
2022/07/13 00:08:47;;;;;;;2.30;2.03;;;23.90;96.10;;;;;;5054142;28;20036;-59
2022/07/13 00:11:13;;;;;;;3.25;1.92;;;24.00;95.40;;;;;;5053704;28;20020;-62
2022/07/13 00:13:38;;;;;;;4.70;2.38;;;24.00;95.40;;;;;;5053661;28;20260;-59
2022/07/13 00:16:04;;;;;;;4.50;2.33;;;24.00;95.00;;;;;;5052370;28;20040;-60
2022/07/13 00:18:30;;;;;;;3.85;1.80;;;24.10;95.20;;;;;;5052588;28;20027;-59
2022/07/13 00:20:56;;;;;;;3.38;2.03;;;24.10;95.10;;;;;;5053637;28;20383;-59
2022/07/13 00:23:21;;;;;;;3.75;2.00;;;24.20;95.50;;;;;;5053868;28;20053;-60
2022/07/13 00:25:47;;;;;;;3.70;2.15;;;24.20;95.60;;;;;;5053780;28;20462;-59
2022/07/13 00:28:12;;;;;;;4.72;2.05;;;24.10;95.80;;;;;;5052320;28;20041;-60
2022/07/13 00:30:38;;;;;;;6.20;2.30;;;24.10;96.10;;;;;;5053740;28;20029;-60
2022/07/13 00:33:05;;;;;;;4.30;2.22;;;24.10;96.40;;;;;;5053622;28;20025;-60
2022/07/13 00:35:31;;;;;;;3.70;1.92;;;24.10;95.90;;;;;;5053556;28;20033;-60
2022/07/13 00:37:56;;;;;;;4.75;2.28;;;24.00;95.70;;;;;;5053537;28;20025;-59
2022/07/13 00:40:22;;;;;;;5.03;2.35;;;24.10;95.30;;;;;;5053098;28;20025;-60
2022/07/13 00:42:48;;;;;;;6.88;2.38;;;24.10;95.60;;;;;;5053342;28;20384;-59
2022/07/13 00:45:14;;;;;;;4.53;2.13;;;24.10;95.70;;;;;;5053436;28;20021;-60
2022/07/13 00:47:41;;;;;;;2.35;2.15;;;24.10;96.70;;;;;;5052207;28;20074;-59
2022/07/13 00:50:08;;;;;;;5.07;2.13;;;24.00;95.80;;;;;;5053423;28;20033;-59
2022/07/13 00:52:38;;;;;;;4.05;2.45;;;23.90;96.30;;;;;;5052778;28;20055;-60
2022/07/13 00:55:06;;;;;;;6.57;2.28;;;23.90;96.20;;;;;;5052902;28;20029;-60
2022/07/13 00:57:37;;;;;;;7.20;2.45;;;24.00;95.70;;;;;;5053225;28;20024;-61
2022/07/13 01:00:12;;;;;;;6.93;1.92;;;24.00;95.50;;;;;;5053017;28;20102;-60
2022/07/13 01:02:42;;;;;;;5.45;2.38;;;24.00;95.80;;;;;;5053057;28;20032;-62
2022/07/13 01:05:10;;;;;;;2.75;2.25;;;24.10;95.30;;;;;;5051555;28;20035;-59
2022/07/13 01:07:36;;;;;;;3.45;2.13;;;24.10;94.60;;;;;;5052800;28;20025;-59
2022/07/13 01:10:07;;;;;;;4.90;2.25;;;24.00;94.40;;;;;;5052910;28;20391;-59
2022/07/13 01:12:37;;;;;;;6.47;2.20;;;24.10;94.10;;;;;;5051304;28;20072;-59
2022/07/13 01:15:05;;;;;;;3.33;2.22;;;24.10;94.60;;;;;;5052625;28;20041;-58
2022/07/13 01:17:33;;;;;;;4.45;2.33;;;24.10;94.20;;;;;;5052989;28;20537;-59
2022/07/13 01:20:00;;;;;;;3.40;2.00;;;24.00;94.20;;;;;;5052627;28;20100;-59
2022/07/13 01:22:31;;;;;;;3.03;2.30;;;24.00;94.10;;;;;;5052299;28;20112;-59
2022/07/13 01:24:58;;;;;;;3.63;2.03;;;24.00;94.20;;;;;;5052410;28;20087;-59
2022/07/13 01:27:23;;;;;;;2.40;1.80;;;24.00;94.60;;;;;;5052580;28;20351;-58
2022/07/13 01:29:49;;;;;;;2.58;2.08;;;24.00;94.60;;;;;;5052399;28;20104;-59
2022/07/13 01:32:15;;;;;;;7.03;2.30;;;23.80;94.80;;;;;;5052274;28;20044;-59
2022/07/13 01:34:40;;;;;;;2.70;1.88;;;23.90;95.10;;;;;;5052296;28;20433;-59
2022/07/13 01:37:06;;;;;;;3.85;2.20;;;24.00;94.90;;;;;;5052041;28;20112;-59
2022/07/13 01:39:32;;;;;;;4.70;2.10;;;24.00;95.00;;;;;;5052542;28;20021;-59
2022/07/13 01:41:58;;;;;;;3.47;2.47;;;23.90;95.10;;;;;;5051901;28;20033;-59
2022/07/13 01:44:23;;;;;;;6.45;2.78;;;23.90;95.40;;;;;;5052460;28;20025;-59
2022/07/13 01:46:49;;;;;;;3.38;2.30;;;23.90;95.40;;;;;;5051639;28;20116;-58
2022/07/13 01:49:14;;;;;;;3.05;2.20;;;23.80;95.80;;;;;;5051975;28;20151;-59
2022/07/13 01:51:40;;;;;;;3.28;2.00;;;23.80;96.00;;;;;;5052045;28;20024;-58
2022/07/13 01:54:06;;;;;;;5.22;2.17;;;23.70;96.30;;;;;;5051264;28;20049;-58
2022/07/13 01:56:34;;;;;;;6.05;2.70;;;23.80;96.00;;;;;;5051767;28;20031;-59
2022/07/13 01:59:01;;;;;;;4.53;2.20;;;23.80;96.10;;;;;;5052073;28;20028;-60
2022/07/13 02:01:27;;;;;;;5.97;2.20;;;23.70;96.20;;;;;;5051755;28;20033;-59
2022/07/13 02:03:54;;;;;;;6.05;2.33;;;23.70;95.80;;;;;;5050369;28;20064;-59
2022/07/13 02:06:20;;;;;;;2.10;1.90;;;23.70;96.00;;;;;;5051489;28;20036;-59
2022/07/13 02:08:45;;;;;;;2.40;1.88;;;23.70;95.90;;;;;;5050425;28;20403;-59
2022/07/13 02:11:18;;;;;;;6.18;2.30;;;23.60;95.80;;;;;;5050577;28;20025;-59
2022/07/13 02:13:45;;;;;;;4.05;2.40;;;23.60;95.80;;;;;;5050607;28;20493;-59
2022/07/13 02:16:15;;;;;;;6.43;2.28;;;23.60;95.40;;;;;;5051096;28;20033;-59
2022/07/13 02:18:41;;;;;;;3.55;2.15;;;23.50;95.60;;;;;;5051279;28;20043;-59
2022/07/13 02:21:07;;;;;;;4.90;2.22;;;23.50;95.20;;;;;;5051374;28;20131;-59
2022/07/13 02:23:32;;;;;;;4.28;2.00;;;23.50;95.00;;;;;;5051182;28;20506;-59
2022/07/13 02:25:58;;;;;;;4.75;2.03;;;23.50;95.00;;;;;;5051228;28;20021;-59
2022/07/13 02:28:24;;;;;;;5.07;2.40;;;23.50;94.70;;;;;;5051593;28;20063;-58
2022/07/13 02:30:50;;;;;;;3.45;2.40;;;23.40;94.90;;;;;;5051104;28;20552;-59
2022/07/13 02:33:15;;;;;;;5.05;2.33;;;23.50;94.70;;;;;;5051268;28;20507;-60
2022/07/13 02:35:41;;;;;;;7.78;2.08;;;23.50;94.90;;;;;;5051120;28;20037;-60
2022/07/13 02:38:06;;;;;;;5.13;2.53;;;23.50;94.90;;;;;;5051257;28;20029;-59
2022/07/13 02:40:33;;;;;;;2.72;2.20;;;23.50;94.90;;;;;;5051399;28;20049;-59
2022/07/13 02:42:59;;;;;;;4.72;2.38;;;23.50;94.80;;;;;;5051064;28;20485;-60
2022/07/13 02:45:25;;;;;;;3.97;2.30;;;23.50;95.00;;;;;;5051705;28;20035;-59
2022/07/13 02:47:51;;;;;;;2.50;2.13;;;23.50;95.00;;;;;;5051291;28;20033;-59
2022/07/13 02:50:16;;;;;;;2.65;2.40;;;23.50;94.90;;;;;;5050978;28;20033;-59
2022/07/13 02:52:42;;;;;;;4.18;2.20;;;23.50;95.00;;;;;;5051036;28;20056;-59
2022/07/13 02:55:08;;;;;;;3.22;2.10;;;23.50;95.00;;;;;;5050718;28;20513;-60
2022/07/13 02:57:34;;;;;;;4.03;2.30;;;23.60;94.90;;;;;;5051034;28;20474;-59
2022/07/13 03:00:00;;;;;;;2.88;2.00;;;23.50;95.00;;;;;;5051114;28;20034;-59
2022/07/13 03:02:26;;;;;;;3.38;2.22;;;23.50;95.00;;;;;;5051085;28;20028;-59
2022/07/13 03:04:51;;;;;;;5.72;2.40;;;23.50;94.90;;;;;;5051484;28;20040;-58
2022/07/13 03:07:17;;;;;;;3.85;2.35;;;23.40;95.30;;;;;;5054473;28;20398;-59
2022/07/13 03:09:42;;;;;;;4.82;2.40;;;23.40;95.30;;;;;;5055223;28;20053;-59
2022/07/13 03:12:08;;;;;;;6.38;2.42;;;23.40;95.50;;;;;;5055034;28;20017;-59
2022/07/13 03:14:34;;;;;;;3.65;2.30;;;23.40;95.50;;;;;;5055059;28;20033;-58
2022/07/13 03:16:59;;;;;;;5.80;2.25;;;23.40;95.30;;;;;;5054904;28;20028;-59
2022/07/13 03:19:25;;;;;;;6.28;2.25;;;23.40;95.20;;;;;;5054939;28;20041;-59
2022/07/13 03:21:50;;;;;;;6.63;2.05;;;23.50;95.50;;;;;;5054513;28;20526;-59
2022/07/13 03:24:16;;;;;;;3.53;2.20;;;23.50;95.40;;;;;;5054645;28;20060;-59
2022/07/13 03:26:42;;;;;;;7.50;2.55;;;23.40;95.40;;;;;;5053328;28;20027;-59
2022/07/13 03:29:07;;;;;;;2.75;2.13;;;23.40;95.70;;;;;;5054677;28;20029;-59
2022/07/13 03:31:33;;;;;;;4.78;2.08;;;23.40;95.40;;;;;;5054515;28;20031;-59
2022/07/13 03:33:59;;;;;;;5.72;2.20;;;23.40;95.50;;;;;;5054699;28;20025;-58
2022/07/13 03:36:24;;;;;;;7.57;2.40;;;23.40;95.40;;;;;;5055251;28;20017;-60
2022/07/13 03:38:51;;;;;;;2.55;2.35;;;23.40;95.50;;;;;;5054834;28;20044;-59
2022/07/13 03:41:16;;;;;;;5.22;2.38;;;23.30;95.70;;;;;;5054407;28;20029;-59
2022/07/13 03:43:42;;;;;;;7.80;2.50;;;23.20;95.70;;;;;;5054423;28;20037;-59
2022/07/13 03:46:07;;;;;;;8.30;2.50;;;23.20;96.00;;;;;;5054212;28;20135;-59
2022/07/13 03:48:33;;;;;;;3.85;2.22;;;23.30;96.00;;;;;;5054521;28;20025;-60
2022/07/13 03:50:59;;;;;;;3.95;2.13;;;23.20;96.30;;;;;;5053394;28;20028;-61
2022/07/13 03:53:24;;;;;;;4.68;2.25;;;23.20;96.20;;;;;;5054221;28;20041;-60
2022/07/13 03:55:50;;;;;;;2.75;2.25;;;23.10;96.40;;;;;;5054255;28;20079;-63
2022/07/13 03:58:15;;;;;;;4.13;2.35;;;23.20;96.60;;;;;;5054061;28;20125;-60
2022/07/13 04:00:41;;;;;;;5.85;2.20;;;23.20;96.10;;;;;;5054170;28;20434;-58
2022/07/13 04:03:07;;;;;;;2.58;2.05;;;23.20;96.20;;;;;;5052486;28;20474;-59
2022/07/13 04:05:32;;;;;;;2.70;1.67;;;23.10;96.10;;;;;;5054090;28;20072;-59
2022/07/13 04:07:58;;;;;;;3.92;2.10;;;23.10;96.00;;;;;;5054242;28;20113;-58
2022/07/13 04:10:23;;;;;;;2.22;1.90;;;23.10;95.90;;;;;;5053643;28;20318;-60
2022/07/13 04:12:49;;;;;;;6.05;2.25;;;23.10;96.10;;;;;;5053871;28;20482;-59
2022/07/13 04:15:16;;;;;;;3.90;2.10;;;23.10;96.00;;;;;;5053761;28;20064;-60
2022/07/13 04:17:43;;;;;;;4.28;1.92;;;23.10;96.00;;;;;;5053475;28;20037;-59
2022/07/13 04:20:11;;;;;;;4.03;1.90;;;23.10;95.80;;;;;;5054310;28;20032;-60
2022/07/13 04:22:36;;;;;;;5.45;1.80;;;23.10;95.70;;;;;;5052420;28;20021;-59
2022/07/13 04:25:03;;;;;;;5.57;2.33;;;23.10;95.80;;;;;;5053617;28;20099;-59
2022/07/13 04:27:29;;;;;;;5.15;2.03;;;23.10;95.90;;;;;;5053653;28;20073;-59
2022/07/13 04:29:54;;;;;;;4.63;2.00;;;23.20;95.70;;;;;;5053879;28;20481;-59
2022/07/13 04:32:20;;;;;;;4.10;1.92;;;23.20;95.80;;;;;;5053573;28;20048;-59
2022/07/13 04:34:46;;;;;;;8.70;2.38;;;23.30;95.60;;;;;;5053465;28;20021;-58
2022/07/13 04:37:11;;;;;;;3.83;2.00;;;23.20;95.70;;;;;;5053386;28;20021;-59
2022/07/13 04:39:40;;;;;;;4.28;2.35;;;23.20;95.70;;;;;;5054068;28;20072;-58
2022/07/13 04:42:06;;;;;;;3.00;1.90;;;23.20;95.60;;;;;;5052128;28;20021;-59
2022/07/13 04:44:32;;;;;;;5.07;2.25;;;23.10;95.80;;;;;;5053641;28;20040;-58
2022/07/13 04:46:58;;;;;;;3.53;2.17;;;23.20;95.70;;;;;;5053065;28;20021;-59
2022/07/13 04:49:23;;;;;;;7.00;2.22;;;23.20;95.80;;;;;;5052120;28;20072;-58
2022/07/13 04:51:50;;;;;;;8.43;2.15;;;23.20;96.00;;;;;;5052763;28;20118;-59
2022/07/13 04:54:20;;;;;;;5.13;2.55;;;23.10;95.40;;;;;;5053194;28;20481;-59
2022/07/13 04:56:46;;;;;;;3.60;2.30;;;23.10;96.00;;;;;;5052826;28;20056;-59
2022/07/13 04:59:12;;;;;;;4.82;2.05;;;23.20;95.60;;;;;;5052876;28;20060;-59
2022/07/13 05:01:38;;;;;;;5.65;1.90;;;23.30;95.20;;;;;;5051681;28;20360;-60
2022/07/13 05:04:04;;;;;;;2.78;1.92;;;23.30;95.40;;;;;;5052625;28;20425;-59
2022/07/13 05:06:30;;;;;;;5.13;2.00;;;23.30;95.20;;;;;;5053020;28;20025;-60
2022/07/13 05:08:56;;;;;;;5.25;2.10;;;23.40;95.20;;;;;;5053530;28;20524;-60
2022/07/13 05:11:22;;;;;;;6.97;2.00;;;23.40;95.60;;;;;;5052617;28;20055;-60
2022/07/13 05:13:48;;;;;;;6.40;2.08;;;23.40;95.90;;;;;;5034735;28;20056;-59
2022/07/13 05:16:13;;;;;;;6.30;1.80;;;23.50;95.30;;;;;;5052594;28;20496;-60
2022/07/13 05:18:39;;;;;;;5.10;2.00;;;23.50;95.00;;;;;;5053000;28;20387;-60
2022/07/13 05:21:05;;;;;;;8.02;2.10;;;23.60;94.80;;;;;;5052613;28;20033;-58
2022/07/13 05:23:31;;;;;;;5.05;2.35;;;23.60;95.00;;;;;;5052280;28;20108;-59
2022/07/13 05:25:57;;;;;;;4.40;2.30;;;23.60;94.90;;;;;;5052666;28;20172;-59
2022/07/13 05:28:23;;;;;;;3.90;2.33;;;23.70;94.90;;;;;;5052327;28;20103;-59
2022/07/13 05:30:48;;;;;;;5.80;2.17;;;23.70;95.30;;;;;;5052286;28;20025;-59
2022/07/13 05:33:16;;;;;;;4.43;2.30;;;23.70;95.10;;;;;;5053013;28;20024;-60
2022/07/13 05:35:42;;;;;;;3.38;2.10;;;23.60;95.20;;;;;;5052636;28;20040;-59
2022/07/13 05:38:08;;;;;;;10.25;2.40;;;23.50;95.30;;;;;;5052312;28;20116;-61
2022/07/13 05:40:33;;;;;;;6.10;2.42;;;23.50;95.40;;;;;;5050824;28;20037;-59
2022/07/13 05:42:59;;;;;;;4.93;2.35;;;23.50;95.40;;;;;;5051827;28;20021;-59
2022/07/13 05:45:25;;;;;;;5.95;2.03;;;23.70;95.80;;;;;;5051880;28;20067;-60
2022/07/13 05:47:51;;;;;;;9.60;2.50;;;23.80;95.10;;;;;;5051742;28;20036;-59
2022/07/13 05:50:17;;;;;;;11.48;2.30;;;24.00;95.50;;;;;;5051357;28;20029;-59
2022/07/13 05:52:43;;;;;;;10.35;2.30;;;24.10;95.10;;;;;;5050292;28;20048;-59
2022/07/13 05:55:10;;;;;;;11.88;2.85;;;24.20;95.00;;;;;;5051576;28;20402;-59
2022/07/13 05:57:36;;;;;;;8.60;3.08;;;24.20;94.80;;;;;;5051618;28;20036;-59
2022/07/13 06:00:05;;;;;;;11.25;3.47;;;24.30;94.40;;;;;;5051700;28;20037;-59
2022/07/13 06:02:31;;;;;;;7.50;3.13;;;24.30;94.40;;;;;;5051777;28;20025;-59
2022/07/13 06:04:57;;;;;;;9.43;3.10;;;24.40;94.80;;;;;;5051526;28;20025;-59
2022/07/13 06:07:22;;;;;;;10.48;3.35;;;24.40;94.70;;;;;;5051355;28;20102;-59
2022/07/13 06:09:49;;;;;;;8.05;3.25;;;24.40;94.20;;;;;;5050000;28;20056;-60
2022/07/13 06:12:15;;;;;;;15.20;3.25;;;24.30;94.30;;;;;;5051307;28;20028;-60
2022/07/13 06:14:40;;;;;;;8.40;3.63;;;24.20;94.40;;;;;;5051383;28;20029;-60
2022/07/13 06:17:06;;;;;;;9.57;3.22;;;24.10;94.90;;;;;;5051436;28;20031;-59
2022/07/13 06:19:33;;;;;;;12.82;3.33;;;24.00;95.00;;;;;;5051398;28;20021;-59
2022/07/13 06:21:59;;;;;;;12.98;3.33;;;24.10;95.20;;;;;;5051380;28;20465;-59
2022/07/13 06:24:25;;;;;;;9.45;3.00;;;24.20;95.10;;;;;;5051060;28;20389;-59
2022/07/13 06:26:50;;;;;;;12.05;3.40;;;24.40;95.20;;;;;;5050072;28;20032;-59
2022/07/13 06:29:16;;;;;;;7.95;2.90;;;24.40;95.30;;;;;;5051348;28;20028;-59
2022/07/13 06:31:42;;;;;;;14.00;2.80;;;24.40;96.10;;;;;;5050904;28;20037;-59
2022/07/13 06:34:08;;;;;;;8.75;2.95;;;24.40;96.60;;;;;;5050839;28;20075;-59
2022/07/13 06:36:34;;;;;;;9.93;3.20;;;24.40;96.50;;;;;;5050938;28;20036;-59
2022/07/13 06:39:00;;;;;;;7.20;3.10;;;24.40;97.00;;;;;;5050974;28;20025;-59
2022/07/13 06:41:26;;;;;;;11.40;3.42;;;24.40;97.10;;;;;;5050957;28;20029;-59
2022/07/13 06:43:52;;;;;;;11.95;3.65;;;24.40;97.60;;;;;;5050917;28;20025;-59
2022/07/13 06:46:17;;;;;;;11.63;3.42;;;24.40;97.70;;;;;;5050470;28;20021;-59
2022/07/13 06:48:43;;;;;;;11.18;3.38;;;24.60;97.90;;;;;;5050918;28;20032;-59
2022/07/13 06:51:09;;;;;;;10.88;3.53;;;24.60;98.10;;;;;;5050787;28;20055;-59
2022/07/13 06:53:34;;;;;;;8.65;3.28;;;24.60;98.00;;;;;;5050820;28;20107;-60
2022/07/13 06:56:00;;;;;;;15.95;3.72;;;24.50;98.40;;;;;;5050755;28;20099;-59
2022/07/13 06:58:26;;;;;;;9.95;4.00;;;24.40;99.20;;;;;;5050848;28;20025;-59
2022/07/13 07:00:51;;;;;;;8.82;3.05;;;24.30;99.60;;;;;;5050873;28;20078;-59
2022/07/13 07:03:18;;;;;;;11.55;2.50;;;24.40;99.40;;;;;;5050546;28;20036;-59
2022/07/13 07:05:45;;;;;;;10.65;3.38;;;24.50;99.60;;;;;;5051025;28;20028;-59
2022/07/13 07:08:10;;;;;;;7.03;3.03;;;24.60;99.60;;;;;;5050950;28;20052;-59
2022/07/13 07:10:37;;;;;;;7.28;3.03;;;24.70;99.50;;;;;;5050637;28;20033;-59
2022/07/13 07:13:03;;;;;;;6.57;3.42;;;24.80;99.90;;;;;;5050619;28;20026;-59
2022/07/13 07:15:29;;;;;;;11.82;3.30;;;24.90;99.90;;;;;;5050400;28;20033;-60
2022/07/13 07:17:54;;;;;;;11.05;3.20;;;25.30;99.90;;;;;;5050733;28;20033;-59
2022/07/13 07:20:20;;;;;;;7.63;3.50;;;25.60;99.00;;;;;;5050472;28;20142;-59
2022/07/13 07:22:46;;;;;;;6.47;3.22;;;25.80;99.10;;;;;;5050791;28;20461;-59
2022/07/13 07:25:12;;;;;;;10.15;3.30;;;25.90;98.50;;;;;;5050473;28;20025;-59
2022/07/13 07:27:40;;;;;;;9.15;3.35;;;25.60;99.10;;;;;;5050750;28;20460;-60
2022/07/13 07:30:06;;;;;;;10.18;3.47;;;25.40;99.90;;;;;;5050293;28;20123;-61
2022/07/13 07:32:32;;;;;;;10.18;3.75;;;25.40;99.90;;;;;;5050279;28;20367;-60
2022/07/13 07:34:58;;;;;;;14.52;4.03;;;25.40;99.70;;;;;;5048975;28;20079;-60
2022/07/13 07:37:23;;;;;;;7.97;3.30;;;25.60;99.80;;;;;;5050157;28;20024;-59
2022/07/13 07:39:49;;;;;;;5.78;3.20;;;25.70;99.20;;;;;;5050459;28;20029;-59
2022/07/13 07:42:15;;;;;;;10.18;3.60;;;25.80;99.40;;;;;;5048935;28;20056;-60
2022/07/13 07:44:41;;;;;;;10.27;3.95;;;25.70;99.60;;;;;;5050160;28;20029;-59
2022/07/13 07:47:07;;;;;;;7.85;3.58;;;25.60;99.90;;;;;;5050195;28;20025;-59
2022/07/13 07:49:32;;;;;;;11.48;3.83;;;25.30;99.90;;;;;;5050782;28;20086;-59
2022/07/13 07:51:58;;;;;;;9.23;3.95;;;25.40;99.90;;;;;;5051593;28;20090;-60
2022/07/13 07:54:24;;;;;;;6.63;3.97;;;25.40;99.90;;;;;;5053931;28;20505;-59
2022/07/13 07:56:50;;;;;;;17.80;4.53;;;25.30;99.90;;;;;;5053518;28;20166;-59
2022/07/13 07:59:16;;;;;;;10.90;4.32;;;25.50;99.90;;;;;;5054181;28;20120;-59
2022/07/13 08:01:42;;;;;;;8.55;3.88;;;25.80;99.90;;;;;;5053895;28;20052;-59
2022/07/13 08:04:08;;;;;;;13.25;4.45;;;26.20;99.90;;;;;;5053619;28;20068;-59
2022/07/13 08:06:34;;;;;;;10.85;4.32;;;26.30;99.20;;;;;;5052183;28;20075;-59
2022/07/13 08:08:59;;;;;;;10.68;3.95;;;25.90;99.40;;;;;;5053842;28;20104;-59
2022/07/13 08:11:26;;;;;;;7.25;3.83;;;26.40;99.70;;;;;;5053440;28;20059;-60
2022/07/13 08:13:52;;;;;;;6.60;3.63;;;27.90;97.00;;;;;;5053420;28;20028;-60
2022/07/13 08:16:18;;;;;;;5.93;3.75;;;29.50;94.50;;;;;;5053755;28;20025;-60
2022/07/13 08:18:45;;;;;;;11.40;4.22;;;29.90;92.00;;;;;;5053319;28;20029;-60
2022/07/13 08:21:11;;;;;;;9.10;3.92;;;29.30;92.80;;;;;;5053376;28;20013;-60
2022/07/13 08:23:52;;;;;;;7.50;4.20;;;28.90;93.00;;;;;;5051990;28;20104;-61
2022/07/13 08:26:26;;;;;;;9.85;4.40;;;28.40;93.60;;;;;;5053924;28;20469;-61
2022/07/13 08:28:53;;;;;;;9.55;4.15;;;27.60;95.40;;;;;;5054202;28;20100;-60
2022/07/13 08:31:22;;;;;;;9.73;4.13;;;27.60;95.90;;;;;;5053445;28;20017;-61
2022/07/13 08:39:19;;;;;;;16.75;4.53;;;27.70;95.40;;;;;;5054364;28;20106;-60
2022/07/13 08:41:48;;;;;;;7.05;3.40;;;27.70;95.90;;;;;;5053647;28;20021;-60
2022/07/13 08:44:13;;;;;;;5.70;3.60;;;28.10;95.30;;;;;;5053430;28;20021;-60
2022/07/13 08:46:39;;;;;;;9.38;3.90;;;28.20;94.50;;;;;;5053420;28;20071;-60
2022/07/13 08:49:06;;;;;;;10.60;4.30;;;27.80;94.90;;;;;;5053719;28;20047;-60
2022/07/13 08:51:32;;;;;;;8.75;3.83;;;27.50;95.80;;;;;;5053370;28;20024;-60
2022/07/13 08:53:59;;;;;;;13.10;3.85;;;27.20;96.20;;;;;;5052851;28;20041;-60
2022/07/13 08:56:24;;;;;;;9.93;4.10;;;27.00;96.60;;;;;;5053623;28;20039;-61
2022/07/13 08:58:52;;;;;;;9.90;3.88;;;27.50;96.50;;;;;;5053132;28;20336;-60
2022/07/13 09:01:19;;;;;;;11.55;4.00;;;27.90;96.00;;;;;;5053034;28;20029;-60
2022/07/13 09:03:45;;;;;;;11.93;3.70;;;28.60;95.20;;;;;;5051993;28;20370;-60
2022/07/13 09:06:40;;;;;;;10.90;3.53;;;29.90;92.40;;;;;;5052407;28;20398;-60
2022/07/13 09:09:07;;;;;;;5.60;3.22;;;30.50;91.00;;;;;;5052963;28;20120;-60
2022/07/13 09:11:32;;;;;;;5.82;3.55;;;31.10;90.80;;;;;;5052464;28;20021;-60
2022/07/13 09:13:58;;;;;;;5.90;3.78;;;30.20;91.40;;;;;;5052646;28;20502;-60
2022/07/13 09:16:24;;;;;;;6.15;3.03;;;30.10;90.70;;;;;;5051594;28;20138;-61
2022/07/13 09:18:59;;;;;;;7.13;3.42;;;29.70;90.20;;;;;;5052843;28;20471;-60
2022/07/13 09:21:27;;;;;;;9.40;3.25;;;29.10;91.20;;;;;;5052971;28;20044;-60
2022/07/13 09:24:03;;;;;;;7.43;3.50;;;28.80;91.80;;;;;;5052446;28;20115;-61
2022/07/13 09:26:47;;;;;;;6.47;3.40;;;29.00;91.70;;;;;;5052795;28;20029;-60
2022/07/13 09:29:13;;;;;;;5.55;2.85;;;29.50;91.00;;;;;;5052546;28;20040;-60
2022/07/13 09:31:53;;;;;;;6.53;3.60;;;30.50;90.30;;;;;;5052257;28;20040;-60
2022/07/13 09:34:20;;;;;;;7.47;3.10;;;31.20;88.00;;;;;;5052126;28;20040;-60
2022/07/13 09:36:45;;;;;;;12.93;2.90;;;31.30;87.70;;;;;;5052226;28;20521;-60
2022/07/13 09:39:11;;;;;;;4.75;2.80;;;31.20;85.90;;;;;;5052245;28;20036;-60
2022/07/13 09:41:37;;;;;;;6.00;2.83;;;30.50;86.30;;;;;;5051975;28;20080;-60
2022/07/13 09:46:57;;;;;;;5.18;2.50;;;31.00;85.60;;;;;;5051808;28;20028;-60
2022/07/13 09:49:37;;;;;;;3.55;2.10;;;31.40;84.00;;;;;;5052328;28;20035;-59
2022/07/13 09:52:05;;;;;;;6.43;2.53;;;32.00;81.30;;;;;;5051885;28;20028;-59
2022/07/13 09:54:33;;;;;;;4.70;2.33;;;32.40;79.60;;;;;;5051769;28;20107;-60
2022/07/13 09:57:08;;;;;;;4.72;2.15;;;32.50;79.00;;;;;;5052200;28;20049;-61
2022/07/13 09:59:35;;;;;;;3.67;1.95;;;32.40;78.90;;;;;;5050637;28;20036;-61
2022/07/13 10:02:03;;;;;;;5.85;2.75;;;33.20;78.30;;;;;;5052019;28;20102;-60
2022/07/13 10:04:30;;;;;;;6.68;2.20;;;33.60;75.60;;;;;;5052321;28;20079;-60
2022/07/13 10:06:56;;;;;;;3.25;2.10;;;33.40;75.60;;;;;;5050829;28;20028;-61
2022/07/13 10:11:51;;;;;;;7.82;2.78;;;32.90;76.00;;;;;;5051693;28;20083;-61
2022/07/13 10:14:18;;;;;;;9.30;2.60;;;33.00;76.90;;;;;;5051058;28;20083;-60
2022/07/13 10:16:44;;;;;;;3.63;2.10;;;33.80;74.10;;;;;;5050468;28;20111;-61
2022/07/13 10:19:11;;;;;;;2.90;1.80;;;34.00;73.10;;;;;;5051704;28;20044;-61
2022/07/13 10:21:45;;;;;;;2.47;1.70;;;35.20;70.60;;;;;;5051859;28;20052;-60
2022/07/13 10:24:17;;;;;;;2.55;1.60;;;35.90;67.30;;;;;;5051476;28;20367;-60
2022/07/13 10:26:47;;;;;;;5.82;1.70;;;35.10;67.30;;;;;;5051494;28;20082;-60
2022/07/13 10:29:14;;;;;;;3.30;1.90;;;35.20;69.50;;;;;;5051881;28;20025;-61
2022/07/13 10:31:41;;;;;;;6.18;2.00;;;35.30;68.40;;;;;;5051389;28;20488;-61
2022/07/13 10:34:08;;;;;;;3.08;1.70;;;35.10;68.90;;;;;;5051421;28;20454;-61
2022/07/13 10:36:53;;;;;;;5.57;1.90;;;34.40;68.90;;;;;;5051722;28;20500;-60
2022/07/13 10:39:24;;;;;;;4.93;2.25;;;33.40;70.40;;;;;;5051609;28;20036;-60
2022/07/13 10:42:13;;;;;;;3.45;1.40;;;33.60;69.70;;;;;;5051844;28;20547;-59
2022/07/13 10:44:41;;;;;;;3.08;1.67;;;34.10;68.20;;;;;;5052225;28;20070;-59
2022/07/13 10:47:11;;;;;;;5.07;1.60;;;34.80;68.70;;;;;;5051518;28;20041;-59
2022/07/13 10:49:47;;;;;;;3.42;1.65;;;35.00;68.40;;;;;;5051595;28;20037;-62
2022/07/13 10:52:22;;;;;;;2.75;1.63;;;34.80;68.70;;;;;;5049754;28;20048;-59
2022/07/13 10:55:22;;;;;;;3.03;2.03;;;34.40;67.90;;;;;;5050189;28;20041;-59
2022/07/13 10:57:48;;;;;;;6.05;2.17;;;33.10;70.60;;;;;;5048952;28;20079;-59
2022/07/13 11:00:18;;;;;;;4.80;1.75;;;32.60;72.30;;;;;;5050437;28;20049;-61
2022/07/13 11:02:54;;;;;;;6.07;1.75;;;32.40;72.40;;;;;;5050684;28;20029;-59
2022/07/13 11:05:23;;;;;;;5.28;1.77;;;32.70;71.80;;;;;;5050459;28;20029;-62
2022/07/13 11:07:50;;;;;;;2.35;1.40;;;33.10;70.50;;;;;;5050693;28;20100;-59
2022/07/13 11:10:24;;;;;;;2.97;1.48;;;32.90;70.30;;;;;;5050193;28;20029;-59
2022/07/13 11:13:01;;;;;;;4.63;1.70;;;32.40;71.30;;;;;;5049961;28;20028;-60
2022/07/13 11:15:49;;;;;;;3.45;1.50;;;32.80;71.50;;;;;;5050045;28;20115;-62
2022/07/13 11:18:21;;;;;;;3.63;1.40;;;34.10;68.00;;;;;;5050281;28;20328;-60
2022/07/13 11:21:05;;;;;;;6.72;1.60;;;33.70;67.80;;;;;;5049943;28;20025;-60
2022/07/13 11:26:40;;;;;;;2.78;1.40;;;33.40;68.00;;;;;;5050924;28;20075;-58
2022/07/13 11:29:38;;;;;;;2.00;1.30;;;33.20;68.90;;;;;;5052453;28;20087;-58
2022/07/13 11:32:05;;;;;;;2.97;1.40;;;33.20;68.50;;;;;;5051864;28;20040;-59
2022/07/13 11:34:31;;;;;;;1.85;1.30;;;33.20;68.20;;;;;;5051676;28;20036;-59
2022/07/13 11:37:00;;;;;;;5.18;1.50;;;33.20;68.00;;;;;;5053309;28;20397;-59
2022/07/13 11:39:27;;;;;;;4.50;1.55;;;33.30;67.30;;;;;;5053464;28;20041;-59
2022/07/13 11:41:55;;;;;;;2.97;1.30;;;33.60;68.50;;;;;;5052930;28;20466;-59
2022/07/13 11:44:22;;;;;;;3.45;1.60;;;33.90;68.20;;;;;;5053122;28;20083;-59
2022/07/13 11:46:48;;;;;;;6.47;1.80;;;34.40;67.30;;;;;;5053174;28;20565;-59
2022/07/13 11:49:14;;;;;;;2.95;1.52;;;35.30;65.50;;;;;;5051887;28;20076;-59
2022/07/13 11:51:43;;;;;;;3.53;2.05;;;36.50;63.50;;;;;;5053224;28;20044;-60
2022/07/13 11:54:14;;;;;;;2.65;1.60;;;37.60;61.50;;;;;;5015469;28;1101297;-60
2022/07/13 11:56:58;;;;;;;1.77;1.33;;;37.60;60.20;;;;;;5054375;28;20056;-60
2022/07/13 11:59:37;;;;;;;3.63;1.70;;;37.60;61.00;;;;;;5054314;28;20025;-59
2022/07/13 12:02:07;;;;;;;3.22;1.50;;;37.30;61.60;;;;;;5054264;28;20024;-60
2022/07/13 12:04:32;;;;;;;3.17;1.50;;;37.60;60.80;;;;;;5054152;28;20029;-60
2022/07/13 12:07:24;;;;;;;5.10;1.73;;;38.40;60.00;;;;;;5054060;28;20029;-60
2022/07/13 12:09:53;;;;;;;4.10;1.65;;;38.20;58.30;;;;;;5053071;28;20032;-60
2022/07/13 12:12:22;;;;;;;4.00;1.40;;;37.40;59.10;;;;;;5053824;28;20025;-59
2022/07/13 12:14:50;;;;;;;1.80;1.38;;;36.30;60.20;;;;;;5053884;28;20510;-59
2022/07/13 12:17:16;;;;;;;2.67;1.50;;;36.30;59.70;;;;;;5053776;28;20161;-60
2022/07/13 12:19:42;;;;;;;2.17;1.40;;;36.00;62.20;;;;;;5052778;28;20083;-60
2022/07/13 12:22:07;;;;;;;6.05;1.45;;;36.70;60.70;;;;;;5053873;28;20436;-59
2022/07/13 12:24:34;;;;;;;4.70;1.83;;;36.60;60.20;;;;;;5053749;28;20052;-60
2022/07/13 12:27:01;;;;;;;7.20;1.48;;;36.50;61.70;;;;;;5053787;28;20462;-62
2022/07/13 12:29:27;;;;;;;4.55;1.58;;;36.70;61.70;;;;;;5054322;28;20059;-61
2022/07/13 12:31:52;;;;;;;5.13;1.40;;;35.30;62.20;;;;;;5053269;28;20025;-61
2022/07/13 12:34:20;;;;;;;5.00;1.90;;;34.50;63.70;;;;;;5053405;28;20028;-60
2022/07/13 12:36:47;;;;;;;5.57;1.70;;;34.50;63.70;;;;;;5053567;28;20016;-61
2022/07/13 12:39:13;;;;;;;4.32;2.00;;;34.30;64.50;;;;;;5053119;28;20532;-62
2022/07/13 12:41:42;;;;;;;3.47;1.73;;;34.70;64.20;;;;;;5053754;28;20099;-62
2022/07/13 12:44:10;;;;;;;4.28;1.67;;;35.30;62.90;;;;;;5053283;28;20099;-59
2022/07/13 12:46:45;;;;;;;5.32;2.03;;;35.10;62.50;;;;;;5052976;28;20422;-59
2022/07/13 12:49:12;;;;;;;7.55;1.80;;;34.70;64.50;;;;;;5052298;28;20374;-59
2022/07/13 12:51:49;;;;;;;6.78;2.10;;;34.70;64.60;;;;;;5051745;28;20047;-59
2022/07/13 12:54:15;;;;;;;5.30;2.22;;;34.90;65.10;;;;;;5051654;28;20053;-62
2022/07/13 12:56:51;;;;;;;2.50;1.75;;;34.80;64.30;;;;;;5051995;28;20119;-59
2022/07/13 12:59:20;;;;;;;6.13;2.17;;;35.30;64.60;;;;;;5053380;28;20379;-59
2022/07/13 13:01:47;;;;;;;2.83;1.85;;;35.20;64.00;;;;;;5052809;28;20543;-59